This is the latest recevied weather packets stored in our database for station/object DK6MR. If no packets are shown the sender has not sent any weather packets the latest 10 day(s).
| Time | Temp. | Humidity | Pressure | Rain* | Wind** | Luminosity | Snow |
|---|---|---|---|---|---|---|---|
| 1777445463 | 10.56° C | 58% | 1022.7 hPa | 0 mm | - | - | - |
| 1777444562 | 10.56° C | 58% | 1022.7 hPa | 0 mm | - | - | - |
| 1777443661 | 11.11° C | 56% | 1022.3 hPa | 0 mm | - | - | - |
| 1777442760 | 11.11° C | 55% | 1022.3 hPa | 0 mm | - | - | - |
| 1777441858 | 10° C | 60% | 1022.3 hPa | 0 mm | - | - | - |
| 1777440958 | 8.89° C | 62% | 1022.3 hPa | 0 mm | - | - | - |
| 1777440057 | 7.22° C | 63% | 1022.3 hPa | 0 mm | - | - | - |
| 1777439156 | 5.56° C | 67% | 1022 hPa | 0 mm | - | - | - |
| 1777438255 | 5.56° C | 67% | 1021.6 hPa | 0 mm | - | - | - |
| 1777437355 | 5.56° C | 68% | 1022 hPa | 0 mm | - | - | - |
| 1777436454 | 5.56° C | 67% | 1021.6 hPa | 0 mm | - | - | - |
| 1777435553 | 6.11° C | 64% | 1021.6 hPa | 0 mm | - | - | - |
| 1777434652 | 6.11° C | 65% | 1021.6 hPa | 0 mm | - | - | - |
| 1777433751 | 6.67° C | 65% | 1021.6 hPa | 0 mm | - | - | - |
| 1777432851 | 6.67° C | 64% | 1021.6 hPa | 0 mm | - | - | - |
| 1777431950 | 6.67° C | 65% | 1021.6 hPa | 0 mm | - | - | - |
| 1777431049 | 6.67° C | 64% | 1021.3 hPa | 0 mm | - | - | - |
| 1777430148 | 6.67° C | 64% | 1021.3 hPa | 0 mm | - | - | - |
| 1777429248 | 6.67° C | 64% | 1021.6 hPa | 0 mm | - | - | - |
| 1777428347 | 6.67° C | 64% | 1021.6 hPa | 0 mm | - | - | - |
| 1777427445 | 7.22° C | 65% | 1021.3 hPa | 0 mm | - | - | - |
| 1777426544 | 7.22° C | 64% | 1021 hPa | 0 mm | - | - | - |
| 1777425644 | 7.78° C | 62% | 1021.3 hPa | 0 mm | - | - | - |
| 1777424743 | 7.78° C | 63% | 1021 hPa | 0 mm | - | - | - |
| 1777423842 | 8.33° C | 60% | 1021 hPa | 0 mm | - | - | - |
* Rain latest hour (hover to see other rain measurements)
** Current wind speed in m/s (hover to see current wind gust speed)